sensor_id;sensor_type;location;lat;lon;timestamp;temperature;humidity
20174;DHT22;10246;50.620;7.232;2023-08-31T00:01:32;14.60;13.20
20174;DHT22;10246;50.620;7.232;2023-08-31T00:03:59;14.60;13.70
20174;DHT22;10246;50.620;7.232;2023-08-31T00:06:26;14.60;14.00
20174;DHT22;10246;50.620;7.232;2023-08-31T00:08:53;14.60;13.70
20174;DHT22;10246;50.620;7.232;2023-08-31T00:11:20;14.60;11.80
20174;DHT22;10246;50.620;7.232;2023-08-31T00:13:47;14.70;12.10
20174;DHT22;10246;50.620;7.232;2023-08-31T00:16:13;14.70;12.80
20174;DHT22;10246;50.620;7.232;2023-08-31T00:18:42;14.70;12.00
20174;DHT22;10246;50.620;7.232;2023-08-31T00:21:10;14.80;12.40
20174;DHT22;10246;50.620;7.232;2023-08-31T00:23:37;14.70;12.70
20174;DHT22;10246;50.620;7.232;2023-08-31T00:26:04;14.70;13.10
20174;DHT22;10246;50.620;7.232;2023-08-31T00:28:31;14.70;13.40
20174;DHT22;10246;50.620;7.232;2023-08-31T00:31:00;14.80;13.90
20174;DHT22;10246;50.620;7.232;2023-08-31T00:33:29;14.70;13.90
20174;DHT22;10246;50.620;7.232;2023-08-31T00:35:59;14.60;14.60
20174;DHT22;10246;50.620;7.232;2023-08-31T00:38:26;14.60;14.90
20174;DHT22;10246;50.620;7.232;2023-08-31T00:40:54;14.60;14.80
20174;DHT22;10246;50.620;7.232;2023-08-31T00:43:21;14.60;14.20
20174;DHT22;10246;50.620;7.232;2023-08-31T00:45:50;14.60;14.00
20174;DHT22;10246;50.620;7.232;2023-08-31T00:48:18;14.60;12.50
20174;DHT22;10246;50.620;7.232;2023-08-31T00:50:45;14.60;12.60
20174;DHT22;10246;50.620;7.232;2023-08-31T00:53:14;14.60;12.00
20174;DHT22;10246;50.620;7.232;2023-08-31T00:55:42;14.60;12.10
20174;DHT22;10246;50.620;7.232;2023-08-31T00:58:10;14.60;12.30
20174;DHT22;10246;50.620;7.232;2023-08-31T01:00:46;14.60;12.00
20174;DHT22;10246;50.620;7.232;2023-08-31T01:03:20;14.60;12.60
20174;DHT22;10246;50.620;7.232;2023-08-31T01:05:54;14.60;12.50
20174;DHT22;10246;50.620;7.232;2023-08-31T01:08:29;14.60;12.90
20174;DHT22;10246;50.620;7.232;2023-08-31T01:11:07;14.60;12.70
20174;DHT22;10246;50.620;7.232;2023-08-31T01:13:41;14.60;12.80
20174;DHT22;10246;50.620;7.232;2023-08-31T01:16:11;14.60;13.50
20174;DHT22;10246;50.620;7.232;2023-08-31T01:18:40;14.60;12.80
20174;DHT22;10246;50.620;7.232;2023-08-31T01:21:12;14.60;13.20
20174;DHT22;10246;50.620;7.232;2023-08-31T01:23:51;14.60;13.50
20174;DHT22;10246;50.620;7.232;2023-08-31T01:26:19;14.60;14.20
20174;DHT22;10246;50.620;7.232;2023-08-31T01:28:47;14.60;14.20
20174;DHT22;10246;50.620;7.232;2023-08-31T01:31:14;14.60;14.20
20174;DHT22;10246;50.620;7.232;2023-08-31T01:33:41;14.60;14.60
20174;DHT22;10246;50.620;7.232;2023-08-31T01:36:14;14.60;15.30
20174;DHT22;10246;50.620;7.232;2023-08-31T01:38:47;14.70;14.90
20174;DHT22;10246;50.620;7.232;2023-08-31T01:41:17;14.70;14.80
20174;DHT22;10246;50.620;7.232;2023-08-31T01:43:47;14.70;14.90
20174;DHT22;10246;50.620;7.232;2023-08-31T01:46:15;14.70;15.40
20174;DHT22;10246;50.620;7.232;2023-08-31T01:48:42;14.70;15.40
20174;DHT22;10246;50.620;7.232;2023-08-31T01:51:09;14.70;15.40
20174;DHT22;10246;50.620;7.232;2023-08-31T01:53:36;14.70;14.90
20174;DHT22;10246;50.620;7.232;2023-08-31T01:56:05;14.70;14.90
20174;DHT22;10246;50.620;7.232;2023-08-31T01:58:32;14.70;15.40
20174;DHT22;10246;50.620;7.232;2023-08-31T02:00:59;14.70;15.40
20174;DHT22;10246;50.620;7.232;2023-08-31T02:03:25;14.60;14.70
20174;DHT22;10246;50.620;7.232;2023-08-31T02:05:52;14.50;14.90
20174;DHT22;10246;50.620;7.232;2023-08-31T02:08:19;14.60;15.30
20174;DHT22;10246;50.620;7.232;2023-08-31T02:10:46;14.50;15.30
20174;DHT22;10246;50.620;7.232;2023-08-31T02:13:15;14.40;15.20
20174;DHT22;10246;50.620;7.232;2023-08-31T02:15:42;14.50;15.20
20174;DHT22;10246;50.620;7.232;2023-08-31T02:18:09;14.50;15.30
20174;DHT22;10246;50.620;7.232;2023-08-31T02:20:35;14.50;15.90
20174;DHT22;10246;50.620;7.232;2023-08-31T02:23:02;14.50;15.00
20174;DHT22;10246;50.620;7.232;2023-08-31T02:25:29;14.50;14.30
20174;DHT22;10246;50.620;7.232;2023-08-31T02:27:56;14.50;14.40
20174;DHT22;10246;50.620;7.232;2023-08-31T02:30:24;14.50;14.70
20174;DHT22;10246;50.620;7.232;2023-08-31T02:32:51;14.50;15.00
20174;DHT22;10246;50.620;7.232;2023-08-31T02:35:17;14.50;14.60
20174;DHT22;10246;50.620;7.232;2023-08-31T02:37:44;14.50;14.60
20174;DHT22;10246;50.620;7.232;2023-08-31T02:40:11;14.40;13.90
20174;DHT22;10246;50.620;7.232;2023-08-31T02:42:38;14.40;13.90
20174;DHT22;10246;50.620;7.232;2023-08-31T02:45:06;14.40;14.20
20174;DHT22;10246;50.620;7.232;2023-08-31T02:47:34;14.30;13.60
20174;DHT22;10246;50.620;7.232;2023-08-31T02:50:01;14.30;13.30
20174;DHT22;10246;50.620;7.232;2023-08-31T02:52:27;14.20;13.50
20174;DHT22;10246;50.620;7.232;2023-08-31T02:54:54;14.20;13.00
20174;DHT22;10246;50.620;7.232;2023-08-31T02:57:21;14.10;12.90
20174;DHT22;10246;50.620;7.232;2023-08-31T02:59:49;14.10;12.60
20174;DHT22;10246;50.620;7.232;2023-08-31T03:02:16;14.00;12.60
20174;DHT22;10246;50.620;7.232;2023-08-31T03:04:44;14.00;13.00
20174;DHT22;10246;50.620;7.232;2023-08-31T03:07:11;14.00;12.60
20174;DHT22;10246;50.620;7.232;2023-08-31T03:09:39;13.90;12.40
20174;DHT22;10246;50.620;7.232;2023-08-31T03:12:06;13.90;13.00
20174;DHT22;10246;50.620;7.232;2023-08-31T03:14:33;13.90;12.80
20174;DHT22;10246;50.620;7.232;2023-08-31T03:16:59;13.80;12.70
20174;DHT22;10246;50.620;7.232;2023-08-31T03:19:26;13.80;13.20
20174;DHT22;10246;50.620;7.232;2023-08-31T03:21:54;13.80;12.60
20174;DHT22;10246;50.620;7.232;2023-08-31T03:24:21;13.70;12.50
20174;DHT22;10246;50.620;7.232;2023-08-31T03:26:48;13.60;12.70
20174;DHT22;10246;50.620;7.232;2023-08-31T03:29:15;13.60;13.60
20174;DHT22;10246;50.620;7.232;2023-08-31T03:31:42;13.50;12.90
20174;DHT22;10246;50.620;7.232;2023-08-31T03:34:08;13.50;13.30
20174;DHT22;10246;50.620;7.232;2023-08-31T03:36:35;13.50;13.70
20174;DHT22;10246;50.620;7.232;2023-08-31T03:39:04;13.50;12.70
20174;DHT22;10246;50.620;7.232;2023-08-31T03:41:31;13.40;13.40
20174;DHT22;10246;50.620;7.232;2023-08-31T03:43:57;13.30;14.40
20174;DHT22;10246;50.620;7.232;2023-08-31T03:46:24;13.30;13.50
20174;DHT22;10246;50.620;7.232;2023-08-31T03:48:52;13.30;13.70
20174;DHT22;10246;50.620;7.232;2023-08-31T03:51:19;13.30;14.20
20174;DHT22;10246;50.620;7.232;2023-08-31T03:53:46;13.20;14.40
20174;DHT22;10246;50.620;7.232;2023-08-31T03:56:14;13.30;14.50
20174;DHT22;10246;50.620;7.232;2023-08-31T03:58:41;13.20;14.40
20174;DHT22;10246;50.620;7.232;2023-08-31T04:01:08;13.20;14.40
20174;DHT22;10246;50.620;7.232;2023-08-31T04:03:35;13.20;14.40
20174;DHT22;10246;50.620;7.232;2023-08-31T04:06:02;13.20;14.40
20174;DHT22;10246;50.620;7.232;2023-08-31T04:08:30;13.20;14.40
20174;DHT22;10246;50.620;7.232;2023-08-31T04:10:57;13.10;14.30
20174;DHT22;10246;50.620;7.232;2023-08-31T04:13:25;13.10;14.40
20174;DHT22;10246;50.620;7.232;2023-08-31T04:15:52;13.10;14.20
20174;DHT22;10246;50.620;7.232;2023-08-31T04:18:19;13.00;14.10
20174;DHT22;10246;50.620;7.232;2023-08-31T04:20:48;13.00;14.30
20174;DHT22;10246;50.620;7.232;2023-08-31T04:23:16;13.00;14.30
20174;DHT22;10246;50.620;7.232;2023-08-31T04:25:43;13.00;14.40
20174;DHT22;10246;50.620;7.232;2023-08-31T04:28:09;13.00;15.00
20174;DHT22;10246;50.620;7.232;2023-08-31T04:30:39;13.00;14.60
20174;DHT22;10246;50.620;7.232;2023-08-31T04:33:06;13.10;15.10
20174;DHT22;10246;50.620;7.232;2023-08-31T04:35:33;13.00;14.40
20174;DHT22;10246;50.620;7.232;2023-08-31T04:38:00;13.00;14.30
20174;DHT22;10246;50.620;7.232;2023-08-31T04:40:27;13.00;14.80
20174;DHT22;10246;50.620;7.232;2023-08-31T04:42:54;13.00;14.30
20174;DHT22;10246;50.620;7.232;2023-08-31T04:45:21;13.00;14.30
20174;DHT22;10246;50.620;7.232;2023-08-31T04:47:49;13.00;14.30
20174;DHT22;10246;50.620;7.232;2023-08-31T04:50:17;13.00;14.30
20174;DHT22;10246;50.620;7.232;2023-08-31T04:52:43;13.00;14.60
20174;DHT22;10246;50.620;7.232;2023-08-31T04:55:12;12.90;14.40
20174;DHT22;10246;50.620;7.232;2023-08-31T04:57:39;12.90;14.60
20174;DHT22;10246;50.620;7.232;2023-08-31T05:00:07;12.90;14.70
20174;DHT22;10246;50.620;7.232;2023-08-31T05:02:34;12.90;15.20
20174;DHT22;10246;50.620;7.232;2023-08-31T05:05:03;12.90;15.40
20174;DHT22;10246;50.620;7.232;2023-08-31T05:07:30;12.90;15.10
20174;DHT22;10246;50.620;7.232;2023-08-31T05:09:57;12.90;15.00
20174;DHT22;10246;50.620;7.232;2023-08-31T05:12:24;12.80;14.90
20174;DHT22;10246;50.620;7.232;2023-08-31T05:14:50;12.80;15.20
20174;DHT22;10246;50.620;7.232;2023-08-31T05:17:17;12.90;15.50
20174;DHT22;10246;50.620;7.232;2023-08-31T05:19:44;12.90;15.40
20174;DHT22;10246;50.620;7.232;2023-08-31T05:22:13;13.00;15.60
20174;DHT22;10246;50.620;7.232;2023-08-31T05:24:40;12.90;14.20
20174;DHT22;10246;50.620;7.232;2023-08-31T05:27:07;12.80;14.10
20174;DHT22;10246;50.620;7.232;2023-08-31T05:29:34;12.90;14.70
20174;DHT22;10246;50.620;7.232;2023-08-31T05:32:01;12.90;14.80
20174;DHT22;10246;50.620;7.232;2023-08-31T05:34:28;12.70;14.40
20174;DHT22;10246;50.620;7.232;2023-08-31T05:36:56;12.70;15.10
20174;DHT22;10246;50.620;7.232;2023-08-31T05:39:24;12.80;15.80
20174;DHT22;10246;50.620;7.232;2023-08-31T05:41:51;12.70;15.60
20174;DHT22;10246;50.620;7.232;2023-08-31T05:44:18;12.80;15.80
20174;DHT22;10246;50.620;7.232;2023-08-31T05:46:44;12.80;15.80
20174;DHT22;10246;50.620;7.232;2023-08-31T05:49:11;12.70;15.90
20174;DHT22;10246;50.620;7.232;2023-08-31T05:51:38;12.70;15.40
20174;DHT22;10246;50.620;7.232;2023-08-31T05:54:05;12.80;15.70
20174;DHT22;10246;50.620;7.232;2023-08-31T05:56:37;12.80;15.50
20174;DHT22;10246;50.620;7.232;2023-08-31T05:59:05;12.80;15.20
20174;DHT22;10246;50.620;7.232;2023-08-31T06:01:31;12.80;15.80
20174;DHT22;10246;50.620;7.232;2023-08-31T06:03:58;12.90;16.10
20174;DHT22;10246;50.620;7.232;2023-08-31T06:06:25;13.00;16.40
20174;DHT22;10246;50.620;7.232;2023-08-31T06:08:52;13.00;16.50
20174;DHT22;10246;50.620;7.232;2023-08-31T06:11:20;13.00;16.40
20174;DHT22;10246;50.620;7.232;2023-08-31T06:13:48;13.00;16.50
20174;DHT22;10246;50.620;7.232;2023-08-31T06:16:15;13.10;16.40
20174;DHT22;10246;50.620;7.232;2023-08-31T06:18:41;13.10;16.90
20174;DHT22;10246;50.620;7.232;2023-08-31T06:21:09;13.20;16.80
20174;DHT22;10246;50.620;7.232;2023-08-31T06:23:35;13.20;17.20
20174;DHT22;10246;50.620;7.232;2023-08-31T06:26:02;13.20;17.10
20174;DHT22;10246;50.620;7.232;2023-08-31T06:28:29;13.30;17.50
20174;DHT22;10246;50.620;7.232;2023-08-31T06:30:57;13.30;17.50
20174;DHT22;10246;50.620;7.232;2023-08-31T06:33:24;13.40;16.90
20174;DHT22;10246;50.620;7.232;2023-08-31T06:35:51;13.50;16.00
20174;DHT22;10246;50.620;7.232;2023-08-31T06:38:18;13.50;16.90
20174;DHT22;10246;50.620;7.232;2023-08-31T06:40:44;13.60;17.30
20174;DHT22;10246;50.620;7.232;2023-08-31T06:43:11;13.70;16.40
20174;DHT22;10246;50.620;7.232;2023-08-31T06:45:38;13.80;15.40
20174;DHT22;10246;50.620;7.232;2023-08-31T06:48:07;14.00;14.10
20174;DHT22;10246;50.620;7.232;2023-08-31T06:50:34;14.10;13.10
20174;DHT22;10246;50.620;7.232;2023-08-31T06:53:01;14.20;12.80
20174;DHT22;10246;50.620;7.232;2023-08-31T06:55:28;14.30;14.10
20174;DHT22;10246;50.620;7.232;2023-08-31T06:57:57;14.50;11.90
20174;DHT22;10246;50.620;7.232;2023-08-31T07:00:24;14.60;11.30
20174;DHT22;10246;50.620;7.232;2023-08-31T07:02:51;14.70;11.70
20174;DHT22;10246;50.620;7.232;2023-08-31T07:05:19;14.80;10.70
20174;DHT22;10246;50.620;7.232;2023-08-31T07:07:51;15.00;10.30
20174;DHT22;10246;50.620;7.232;2023-08-31T07:10:18;15.00;9.60
20174;DHT22;10246;50.620;7.232;2023-08-31T07:12:45;15.20;10.20
20174;DHT22;10246;50.620;7.232;2023-08-31T07:15:12;15.30;9.30
20174;DHT22;10246;50.620;7.232;2023-08-31T07:17:39;15.40;7.70
20174;DHT22;10246;50.620;7.232;2023-08-31T07:20:06;15.50;7.50
20174;DHT22;10246;50.620;7.232;2023-08-31T07:22:36;15.60;5.40
20174;DHT22;10246;50.620;7.232;2023-08-31T07:25:03;15.70;4.40
20174;DHT22;10246;50.620;7.232;2023-08-31T07:27:31;15.80;4.80
20174;DHT22;10246;50.620;7.232;2023-08-31T07:29:58;15.90;2.40
20174;DHT22;10246;50.620;7.232;2023-08-31T07:32:24;16.00;2.90
20174;DHT22;10246;50.620;7.232;2023-08-31T07:34:51;16.10;2.30
20174;DHT22;10246;50.620;7.232;2023-08-31T07:37:18;16.20;2.60
20174;DHT22;10246;50.620;7.232;2023-08-31T07:39:46;16.20;2.60
20174;DHT22;10246;50.620;7.232;2023-08-31T07:42:12;16.30;1.80
20174;DHT22;10246;50.620;7.232;2023-08-31T07:44:39;16.50;1.00
20174;DHT22;10246;50.620;7.232;2023-08-31T07:47:07;16.50;1.00
20174;DHT22;10246;50.620;7.232;2023-08-31T07:49:33;16.50;1.20
20174;DHT22;10246;50.620;7.232;2023-08-31T07:52:00;16.60;1.00
20174;DHT22;10246;50.620;7.232;2023-08-31T07:54:28;16.70;1.00
20174;DHT22;10246;50.620;7.232;2023-08-31T07:56:56;16.70;1.00
20174;DHT22;10246;50.620;7.232;2023-08-31T07:59:23;16.80;1.00
20174;DHT22;10246;50.620;7.232;2023-08-31T08:01:50;17.00;1.00
20174;DHT22;10246;50.620;7.232;2023-08-31T08:04:18;17.10;1.00
20174;DHT22;10246;50.620;7.232;2023-08-31T08:06:45;17.30;1.00
20174;DHT22;10246;50.620;7.232;2023-08-31T08:09:12;17.60;1.00
20174;DHT22;10246;50.620;7.232;2023-08-31T08:11:38;17.70;1.00
20174;DHT22;10246;50.620;7.232;2023-08-31T08:14:07;17.80;1.00
20174;DHT22;10246;50.620;7.232;2023-08-31T08:16:33;18.00;1.00
20174;DHT22;10246;50.620;7.232;2023-08-31T08:19:02;18.00;1.00
20174;DHT22;10246;50.620;7.232;2023-08-31T08:21:29;18.20;1.00
20174;DHT22;10246;50.620;7.232;2023-08-31T08:23:55;18.20;1.00
20174;DHT22;10246;50.620;7.232;2023-08-31T08:26:23;18.30;1.00
20174;DHT22;10246;50.620;7.232;2023-08-31T08:28:50;18.40;1.00
20174;DHT22;10246;50.620;7.232;2023-08-31T08:31:18;18.40;1.00
20174;DHT22;10246;50.620;7.232;2023-08-31T08:33:45;18.40;1.00
20174;DHT22;10246;50.620;7.232;2023-08-31T08:36:11;18.40;1.00
20174;DHT22;10246;50.620;7.232;2023-08-31T08:38:38;18.40;1.00
20174;DHT22;10246;50.620;7.232;2023-08-31T08:41:05;18.30;1.00
20174;DHT22;10246;50.620;7.232;2023-08-31T08:43:33;18.40;1.00
20174;DHT22;10246;50.620;7.232;2023-08-31T08:46:05;18.50;1.00
20174;DHT22;10246;50.620;7.232;2023-08-31T08:48:34;18.60;1.00
20174;DHT22;10246;50.620;7.232;2023-08-31T08:51:03;18.50;1.00
20174;DHT22;10246;50.620;7.232;2023-08-31T08:53:30;18.60;1.00
20174;DHT22;10246;50.620;7.232;2023-08-31T08:55:57;18.80;1.00
20174;DHT22;10246;50.620;7.232;2023-08-31T08:58:24;18.90;1.00
20174;DHT22;10246;50.620;7.232;2023-08-31T09:00:52;19.00;1.00
20174;DHT22;10246;50.620;7.232;2023-08-31T09:03:20;19.10;1.00
20174;DHT22;10246;50.620;7.232;2023-08-31T09:05:50;19.10;1.00
20174;DHT22;10246;50.620;7.232;2023-08-31T09:08:16;19.20;1.00
20174;DHT22;10246;50.620;7.232;2023-08-31T09:10:44;19.20;1.00
20174;DHT22;10246;50.620;7.232;2023-08-31T09:13:32;19.30;1.00
20174;DHT22;10246;50.620;7.232;2023-08-31T09:16:02;19.50;1.00
20174;DHT22;10246;50.620;7.232;2023-08-31T09:18:30;19.60;1.00
20174;DHT22;10246;50.620;7.232;2023-08-31T09:21:00;19.60;1.00
20174;DHT22;10246;50.620;7.232;2023-08-31T09:23:28;19.70;1.00
20174;DHT22;10246;50.620;7.232;2023-08-31T09:25:55;19.80;1.00
20174;DHT22;10246;50.620;7.232;2023-08-31T09:28:24;20.00;1.00
20174;DHT22;10246;50.620;7.232;2023-08-31T09:30:52;20.20;1.00
20174;DHT22;10246;50.620;7.232;2023-08-31T09:33:20;20.40;1.00
20174;DHT22;10246;50.620;7.232;2023-08-31T09:35:49;20.50;1.00
20174;DHT22;10246;50.620;7.232;2023-08-31T09:38:18;20.40;1.00
20174;DHT22;10246;50.620;7.232;2023-08-31T09:40:45;20.50;1.00
20174;DHT22;10246;50.620;7.232;2023-08-31T09:43:16;20.40;1.00
20174;DHT22;10246;50.620;7.232;2023-08-31T09:45:45;20.30;1.00
20174;DHT22;10246;50.620;7.232;2023-08-31T09:48:13;20.20;1.00
20174;DHT22;10246;50.620;7.232;2023-08-31T09:50:43;20.20;1.00
20174;DHT22;10246;50.620;7.232;2023-08-31T09:53:10;20.00;1.00
20174;DHT22;10246;50.620;7.232;2023-08-31T09:55:39;20.00;1.00
20174;DHT22;10246;50.620;7.232;2023-08-31T09:58:07;19.90;1.00
20174;DHT22;10246;50.620;7.232;2023-08-31T10:00:36;19.90;1.00
20174;DHT22;10246;50.620;7.232;2023-08-31T10:03:05;20.00;1.00
20174;DHT22;10246;50.620;7.232;2023-08-31T10:05:32;20.00;1.00
20174;DHT22;10246;50.620;7.232;2023-08-31T10:08:00;20.10;1.00
20174;DHT22;10246;50.620;7.232;2023-08-31T10:10:27;20.30;1.00
20174;DHT22;10246;50.620;7.232;2023-08-31T10:12:56;20.40;1.00
20174;DHT22;10246;50.620;7.232;2023-08-31T10:15:28;20.60;1.00
20174;DHT22;10246;50.620;7.232;2023-08-31T10:17:58;20.90;1.00
20174;DHT22;10246;50.620;7.232;2023-08-31T10:20:25;21.10;1.00
20174;DHT22;10246;50.620;7.232;2023-08-31T10:22:54;21.10;1.00
20174;DHT22;10246;50.620;7.232;2023-08-31T10:25:21;20.90;1.00
20174;DHT22;10246;50.620;7.232;2023-08-31T10:27:48;20.90;1.00
20174;DHT22;10246;50.620;7.232;2023-08-31T10:30:26;21.00;1.00
20174;DHT22;10246;50.620;7.232;2023-08-31T10:33:24;20.80;1.00
20174;DHT22;10246;50.620;7.232;2023-08-31T10:35:54;20.70;1.00
20174;DHT22;10246;50.620;7.232;2023-08-31T10:38:26;20.60;1.00
20174;DHT22;10246;50.620;7.232;2023-08-31T10:41:17;20.70;1.00
20174;DHT22;10246;50.620;7.232;2023-08-31T10:43:46;20.90;1.00
20174;DHT22;10246;50.620;7.232;2023-08-31T10:46:29;21.00;1.00
20174;DHT22;10246;50.620;7.232;2023-08-31T10:48:58;21.00;1.00
20174;DHT22;10246;50.620;7.232;2023-08-31T10:51:26;20.90;1.00
20174;DHT22;10246;50.620;7.232;2023-08-31T10:54:07;20.90;1.00
20174;DHT22;10246;50.620;7.232;2023-08-31T10:56:52;20.80;1.00
20174;DHT22;10246;50.620;7.232;2023-08-31T10:59:20;20.80;1.00
20174;DHT22;10246;50.620;7.232;2023-08-31T11:01:56;20.70;1.00
20174;DHT22;10246;50.620;7.232;2023-08-31T11:04:23;20.70;1.00
20174;DHT22;10246;50.620;7.232;2023-08-31T11:07:12;20.90;1.00
20174;DHT22;10246;50.620;7.232;2023-08-31T11:09:39;20.80;1.00
20174;DHT22;10246;50.620;7.232;2023-08-31T11:12:06;20.90;1.00
20174;DHT22;10246;50.620;7.232;2023-08-31T11:14:33;20.80;1.00
20174;DHT22;10246;50.620;7.232;2023-08-31T11:17:01;20.80;1.00
20174;DHT22;10246;50.620;7.232;2023-08-31T11:19:30;21.00;1.00
20174;DHT22;10246;50.620;7.232;2023-08-31T11:21:58;21.30;1.00
20174;DHT22;10246;50.620;7.232;2023-08-31T11:24:26;21.60;1.00
20174;DHT22;10246;50.620;7.232;2023-08-31T11:26:53;21.90;1.00
20174;DHT22;10246;50.620;7.232;2023-08-31T11:29:20;22.10;1.00
20174;DHT22;10246;50.620;7.232;2023-08-31T11:31:47;22.30;1.00
20174;DHT22;10246;50.620;7.232;2023-08-31T11:34:16;22.40;1.00
20174;DHT22;10246;50.620;7.232;2023-08-31T11:36:44;22.60;1.00
20174;DHT22;10246;50.620;7.232;2023-08-31T11:39:12;22.90;1.00
20174;DHT22;10246;50.620;7.232;2023-08-31T11:41:40;23.00;1.00
20174;DHT22;10246;50.620;7.232;2023-08-31T11:44:07;23.00;1.00
20174;DHT22;10246;50.620;7.232;2023-08-31T11:46:35;22.90;1.00
20174;DHT22;10246;50.620;7.232;2023-08-31T11:49:02;22.60;1.00
20174;DHT22;10246;50.620;7.232;2023-08-31T11:51:32;22.60;1.00
20174;DHT22;10246;50.620;7.232;2023-08-31T11:54:00;22.70;1.00
20174;DHT22;10246;50.620;7.232;2023-08-31T11:56:38;22.70;1.00
20174;DHT22;10246;50.620;7.232;2023-08-31T11:59:08;22.60;1.00
20174;DHT22;10246;50.620;7.232;2023-08-31T12:01:38;22.70;1.00
20174;DHT22;10246;50.620;7.232;2023-08-31T12:04:10;22.80;1.00
20174;DHT22;10246;50.620;7.232;2023-08-31T12:06:39;23.00;1.00
20174;DHT22;10246;50.620;7.232;2023-08-31T12:09:06;23.00;1.00
20174;DHT22;10246;50.620;7.232;2023-08-31T12:11:33;22.70;1.00
20174;DHT22;10246;50.620;7.232;2023-08-31T12:14:01;22.50;1.00
20174;DHT22;10246;50.620;7.232;2023-08-31T12:16:32;22.20;1.00
20174;DHT22;10246;50.620;7.232;2023-08-31T12:19:02;22.00;1.00
20174;DHT22;10246;50.620;7.232;2023-08-31T12:21:29;22.00;1.00
20174;DHT22;10246;50.620;7.232;2023-08-31T12:23:58;21.90;1.00
20174;DHT22;10246;50.620;7.232;2023-08-31T12:26:25;21.80;1.00
20174;DHT22;10246;50.620;7.232;2023-08-31T12:28:52;21.80;1.00
20174;DHT22;10246;50.620;7.232;2023-08-31T12:31:18;21.60;1.00
20174;DHT22;10246;50.620;7.232;2023-08-31T12:33:45;21.40;1.00
20174;DHT22;10246;50.620;7.232;2023-08-31T12:36:12;21.20;1.00
20174;DHT22;10246;50.620;7.232;2023-08-31T12:38:39;21.20;1.00
20174;DHT22;10246;50.620;7.232;2023-08-31T12:41:07;21.00;1.00
20174;DHT22;10246;50.620;7.232;2023-08-31T12:43:34;20.80;1.00
20174;DHT22;10246;50.620;7.232;2023-08-31T12:46:01;20.80;1.00
20174;DHT22;10246;50.620;7.232;2023-08-31T12:48:31;20.90;1.00
20174;DHT22;10246;50.620;7.232;2023-08-31T12:50:57;21.30;1.00
20174;DHT22;10246;50.620;7.232;2023-08-31T12:53:24;21.70;1.00
20174;DHT22;10246;50.620;7.232;2023-08-31T12:55:52;22.20;1.00
20174;DHT22;10246;50.620;7.232;2023-08-31T12:58:20;22.50;1.00
20174;DHT22;10246;50.620;7.232;2023-08-31T13:00:47;22.60;1.00
20174;DHT22;10246;50.620;7.232;2023-08-31T13:03:15;22.60;1.00
20174;DHT22;10246;50.620;7.232;2023-08-31T13:05:42;22.50;1.00
20174;DHT22;10246;50.620;7.232;2023-08-31T13:08:09;22.30;1.00
20174;DHT22;10246;50.620;7.232;2023-08-31T13:10:36;22.10;1.00
20174;DHT22;10246;50.620;7.232;2023-08-31T13:13:02;22.10;1.00
20174;DHT22;10246;50.620;7.232;2023-08-31T13:15:32;22.10;1.00
20174;DHT22;10246;50.620;7.232;2023-08-31T13:17:59;22.10;1.00
20174;DHT22;10246;50.620;7.232;2023-08-31T13:20:29;22.20;1.00
20174;DHT22;10246;50.620;7.232;2023-08-31T13:22:56;22.10;1.00
20174;DHT22;10246;50.620;7.232;2023-08-31T13:25:23;22.10;1.00
20174;DHT22;10246;50.620;7.232;2023-08-31T13:28:10;22.50;1.00
20174;DHT22;10246;50.620;7.232;2023-08-31T13:30:38;22.80;1.00
20174;DHT22;10246;50.620;7.232;2023-08-31T13:33:06;22.90;1.00
20174;DHT22;10246;50.620;7.232;2023-08-31T13:35:33;22.70;1.00
20174;DHT22;10246;50.620;7.232;2023-08-31T13:38:00;22.60;1.00
20174;DHT22;10246;50.620;7.232;2023-08-31T13:40:28;22.50;1.00
20174;DHT22;10246;50.620;7.232;2023-08-31T13:42:56;22.60;1.00
20174;DHT22;10246;50.620;7.232;2023-08-31T13:45:24;22.70;1.00
20174;DHT22;10246;50.620;7.232;2023-08-31T13:47:53;22.80;1.00
20174;DHT22;10246;50.620;7.232;2023-08-31T13:50:20;22.80;1.00
20174;DHT22;10246;50.620;7.232;2023-08-31T13:52:47;22.80;1.00
20174;DHT22;10246;50.620;7.232;2023-08-31T13:55:14;22.90;1.00
20174;DHT22;10246;50.620;7.232;2023-08-31T13:57:42;22.90;1.00
20174;DHT22;10246;50.620;7.232;2023-08-31T14:00:10;23.00;1.00
20174;DHT22;10246;50.620;7.232;2023-08-31T14:02:37;23.30;1.00
20174;DHT22;10246;50.620;7.232;2023-08-31T14:05:06;23.40;1.00
20174;DHT22;10246;50.620;7.232;2023-08-31T14:07:34;23.50;1.00
20174;DHT22;10246;50.620;7.232;2023-08-31T14:10:01;23.50;1.00
20174;DHT22;10246;50.620;7.232;2023-08-31T14:12:28;23.30;1.00
20174;DHT22;10246;50.620;7.232;2023-08-31T14:14:55;23.10;1.00
20174;DHT22;10246;50.620;7.232;2023-08-31T14:17:23;22.90;1.00
20174;DHT22;10246;50.620;7.232;2023-08-31T14:19:49;22.90;1.00
20174;DHT22;10246;50.620;7.232;2023-08-31T14:22:18;22.80;1.00
20174;DHT22;10246;50.620;7.232;2023-08-31T14:24:45;22.80;1.00
20174;DHT22;10246;50.620;7.232;2023-08-31T14:27:11;22.70;1.00
20174;DHT22;10246;50.620;7.232;2023-08-31T14:29:38;22.60;1.00
20174;DHT22;10246;50.620;7.232;2023-08-31T14:32:05;22.50;1.00
20174;DHT22;10246;50.620;7.232;2023-08-31T14:34:32;22.40;1.00
20174;DHT22;10246;50.620;7.232;2023-08-31T14:36:59;22.30;1.00
20174;DHT22;10246;50.620;7.232;2023-08-31T14:39:27;22.30;1.00
20174;DHT22;10246;50.620;7.232;2023-08-31T14:41:56;22.20;1.00
20174;DHT22;10246;50.620;7.232;2023-08-31T14:44:23;22.10;1.00
20174;DHT22;10246;50.620;7.232;2023-08-31T14:46:50;22.10;1.00
20174;DHT22;10246;50.620;7.232;2023-08-31T14:49:17;22.10;1.00
20174;DHT22;10246;50.620;7.232;2023-08-31T14:51:44;22.10;1.00
20174;DHT22;10246;50.620;7.232;2023-08-31T14:54:10;22.10;1.00
20174;DHT22;10246;50.620;7.232;2023-08-31T14:56:38;21.90;1.00
20174;DHT22;10246;50.620;7.232;2023-08-31T14:59:05;21.70;1.00
20174;DHT22;10246;50.620;7.232;2023-08-31T15:01:32;21.60;1.00
20174;DHT22;10246;50.620;7.232;2023-08-31T15:03:58;21.50;1.00
20174;DHT22;10246;50.620;7.232;2023-08-31T15:06:25;21.60;1.00
20174;DHT22;10246;50.620;7.232;2023-08-31T15:08:52;21.70;1.00
20174;DHT22;10246;50.620;7.232;2023-08-31T15:11:19;21.70;1.00
20174;DHT22;10246;50.620;7.232;2023-08-31T15:13:47;21.70;1.00
20174;DHT22;10246;50.620;7.232;2023-08-31T15:16:13;21.50;1.00
20174;DHT22;10246;50.620;7.232;2023-08-31T15:18:41;21.50;1.00
20174;DHT22;10246;50.620;7.232;2023-08-31T15:21:07;21.60;1.00
20174;DHT22;10246;50.620;7.232;2023-08-31T15:23:34;21.70;1.00
20174;DHT22;10246;50.620;7.232;2023-08-31T15:26:01;21.70;1.00
20174;DHT22;10246;50.620;7.232;2023-08-31T15:28:29;21.70;1.00
20174;DHT22;10246;50.620;7.232;2023-08-31T15:30:57;21.80;1.00
20174;DHT22;10246;50.620;7.232;2023-08-31T15:33:24;21.80;1.00
20174;DHT22;10246;50.620;7.232;2023-08-31T15:35:50;21.80;1.00
20174;DHT22;10246;50.620;7.232;2023-08-31T15:38:19;21.80;1.00
20174;DHT22;10246;50.620;7.232;2023-08-31T15:40:46;21.80;1.00
20174;DHT22;10246;50.620;7.232;2023-08-31T15:43:13;21.70;1.00
20174;DHT22;10246;50.620;7.232;2023-08-31T15:45:44;21.70;1.00